Time;durP1;ratioP1;P1;durP2;ratioP2;P2;SDS_P1;SDS_P2;PMS_P1;PMS_P2;Temp;Humidity;BMP_temperature;BMP_pressure;BME280_temperature;BME280_humidity;BME280_pressure;Samples;Min_cycle;Max_cycle;Signal;HPM_P1;HPM_P2
2024/03/31 00:00:09;;;;;;;8.45;2.92;;;;;;;18.22;43.19;99628.00;5092568;28;20382;-39
2024/03/31 00:02:36;;;;;;;11.10;2.72;;;;;;;18.17;43.54;99623.41;5092735;28;20019;-37
2024/03/31 00:05:01;;;;;;;9.43;2.90;;;;;;;18.17;43.56;99628.78;5092716;28;20365;-38
2024/03/31 00:07:27;;;;;;;5.60;2.50;;;;;;;17.95;43.87;99629.69;5092551;28;20020;-39
2024/03/31 00:09:52;;;;;;;10.38;2.70;;;;;;;17.77;44.65;99630.81;5092457;28;20039;-36
2024/03/31 00:12:18;;;;;;;8.93;2.60;;;;;;;17.83;44.54;99631.66;5092571;28;20016;-37
2024/03/31 00:14:44;;;;;;;11.40;2.53;;;;;;;17.77;44.69;99625.41;5092365;28;20443;-40
2024/03/31 00:17:09;;;;;;;7.18;2.80;;;;;;;17.77;44.24;99635.38;5092526;28;20023;-37
2024/03/31 00:19:35;;;;;;;7.00;2.92;;;;;;;17.70;44.02;99640.94;5092465;28;20471;-36
2024/03/31 00:22:01;;;;;;;10.20;2.50;;;;;;;17.44;44.92;99642.56;5092599;28;20031;-37
2024/03/31 00:24:26;;;;;;;11.32;2.70;;;;;;;17.59;44.64;99640.03;5092338;28;20065;-39
2024/03/31 00:26:53;;;;;;;6.45;2.95;;;;;;;17.49;44.48;99639.09;5091973;28;20055;-39
2024/03/31 00:29:18;;;;;;;7.63;2.60;;;;;;;17.32;45.35;99636.47;5091984;28;20020;-40
2024/03/31 00:31:44;;;;;;;12.00;2.70;;;;;;;17.34;45.60;99637.03;5092426;28;20120;-37
2024/03/31 00:34:10;;;;;;;10.95;2.67;;;;;;;17.33;45.74;99630.88;5092250;28;20020;-36
2024/03/31 00:36:35;;;;;;;10.57;3.10;;;;;;;17.37;45.27;99625.78;5092285;28;20111;-36
2024/03/31 00:39:00;;;;;;;7.50;3.08;;;;;;;17.36;45.89;99633.06;5091813;28;20127;-38
2024/03/31 00:41:26;;;;;;;7.88;2.85;;;;;;;17.31;45.68;99627.63;5092128;28;20479;-37
2024/03/31 00:43:51;;;;;;;7.13;2.50;;;;;;;17.27;45.59;99631.88;5091285;28;20099;-39
2024/03/31 00:46:17;;;;;;;9.23;3.08;;;;;;;17.19;45.91;99622.38;5091379;28;20380;-38
2024/03/31 00:48:42;;;;;;;7.53;2.92;;;;;;;17.26;45.55;99627.53;5091950;28;20036;-38
2024/03/31 00:51:07;;;;;;;8.82;2.85;;;;;;;17.21;46.54;99627.50;5091852;28;20024;-39
2024/03/31 00:53:33;;;;;;;10.45;3.03;;;;;;;17.15;46.65;99625.78;5091543;28;20183;-40
2024/03/31 00:55:58;;;;;;;9.50;2.90;;;;;;;17.13;46.68;99619.84;5091098;28;20325;-39
2024/03/31 00:58:24;;;;;;;7.30;2.80;;;;;;;17.10;46.70;99625.75;5091181;28;20102;-37
2024/03/31 01:00:49;;;;;;;8.48;3.00;;;;;;;17.08;46.69;99633.25;5091589;28;20020;-37
2024/03/31 01:03:25;;;;;;;9.65;3.30;;;;;;;17.08;46.99;99625.97;5091380;28;20490;-38
2024/03/31 01:05:51;;;;;;;9.73;2.90;;;;;;;16.72;46.83;99625.47;5091345;28;20120;-39
2024/03/31 01:08:17;;;;;;;10.25;3.10;;;;;;;16.74;46.95;99622.53;5091559;28;20425;-40
2024/03/31 01:10:42;;;;;;;9.50;3.45;;;;;;;16.92;46.86;99629.50;5091022;28;20016;-39
2024/03/31 01:13:08;;;;;;;9.90;2.90;;;;;;;16.84;46.91;99641.50;5091033;28;20373;-39
2024/03/31 01:15:33;;;;;;;8.30;3.20;;;;;;;16.80;46.90;99643.03;5091079;28;20099;-39
2024/03/31 01:17:58;;;;;;;9.57;2.90;;;;;;;16.87;46.50;99632.97;5090988;28;20039;-39
2024/03/31 01:20:24;;;;;;;11.55;3.17;;;;;;;16.84;46.59;99638.00;5090913;28;20020;-39
2024/03/31 01:22:49;;;;;;;6.97;2.72;;;;;;;16.69;47.43;99633.19;5090640;28;20036;-38
2024/03/31 01:25:15;;;;;;;10.30;3.05;;;;;;;16.61;47.54;99632.53;5090843;28;20040;-38
2024/03/31 01:27:40;;;;;;;8.20;2.95;;;;;;;16.51;47.24;99637.78;5091023;28;20058;-40
2024/03/31 01:30:06;;;;;;;9.70;3.17;;;;;;;16.40;48.09;99639.47;5090832;28;20454;-39
2024/03/31 01:32:32;;;;;;;15.23;3.38;;;;;;;16.43;47.50;99651.63;5091242;28;20032;-39
2024/03/31 01:34:57;;;;;;;7.90;3.20;;;;;;;16.44;47.91;99639.00;5090960;28;20024;-36
2024/03/31 01:37:22;;;;;;;11.55;3.13;;;;;;;16.46;48.53;99644.94;5090923;28;20024;-39
2024/03/31 01:39:48;;;;;;;6.95;2.88;;;;;;;16.44;49.00;99639.00;5090913;28;20201;-39
2024/03/31 01:42:13;;;;;;;11.43;3.50;;;;;;;16.45;48.73;99649.50;5090774;28;20047;-38
2024/03/31 01:44:39;;;;;;;11.73;3.63;;;;;;;16.41;48.49;99661.75;5091082;28;20237;-39
2024/03/31 01:47:04;;;;;;;8.88;3.40;;;;;;;16.29;49.40;99659.16;5091025;28;20031;-40
2024/03/31 01:49:29;;;;;;;13.55;3.58;;;;;;;16.35;48.55;99657.38;5090911;28;20032;-39
2024/03/31 01:51:55;;;;;;;14.43;3.40;;;;;;;16.23;48.35;99657.44;5090732;28;20086;-38
2024/03/31 01:54:20;;;;;;;8.73;3.10;;;;;;;15.81;49.31;99657.78;5090626;28;20032;-40
2024/03/31 01:56:46;;;;;;;8.00;2.95;;;;;;;15.76;49.25;99649.63;5090306;28;20042;-38
2024/03/31 01:59:11;;;;;;;8.48;3.00;;;;;;;15.72;49.32;99657.31;5090839;28;20023;-39
2024/03/31 02:01:36;;;;;;;8.77;3.10;;;;;;;15.78;49.58;99656.41;5090447;28;20457;-40
2024/03/31 02:04:02;;;;;;;10.65;3.05;;;;;;;15.76;50.43;99657.69;5090442;28;20122;-40
2024/03/31 02:06:27;;;;;;;8.23;3.30;;;;;;;15.87;50.10;99651.44;5090627;28;20024;-39
2024/03/31 02:08:53;;;;;;;8.98;3.35;;;;;;;15.96;50.03;99657.25;5090590;28;20176;-40
2024/03/31 02:11:18;;;;;;;11.20;3.40;;;;;;;16.01;50.38;99652.78;5090321;28;20035;-40
2024/03/31 02:13:44;;;;;;;8.35;3.20;;;;;;;16.07;49.90;99658.22;5090510;28;20031;-40
2024/03/31 02:16:09;;;;;;;8.75;3.08;;;;;;;16.05;49.77;99652.28;5090450;28;20103;-40
2024/03/31 02:18:34;;;;;;;10.07;3.47;;;;;;;16.10;49.06;99661.25;5090246;28;20146;-41
2024/03/31 02:21:00;;;;;;;9.07;3.13;;;;;;;16.00;50.18;99658.41;5090291;28;20358;-39
2024/03/31 02:23:25;;;;;;;10.45;3.47;;;;;;;15.87;50.44;99664.88;5090353;28;20020;-38
2024/03/31 02:25:50;;;;;;;11.82;3.10;;;;;;;15.84;50.66;99670.72;5090129;28;20016;-39
2024/03/31 02:28:16;;;;;;;9.10;3.50;;;;;;;15.81;50.65;99673.88;5090368;28;20091;-41
2024/03/31 02:30:41;;;;;;;10.73;3.28;;;;;;;15.94;50.42;99668.22;5090200;28;20103;-41
2024/03/31 02:33:07;;;;;;;9.18;3.20;;;;;;;15.95;50.29;99677.09;5089712;28;20464;-40
2024/03/31 02:35:32;;;;;;;9.75;3.42;;;;;;;15.92;50.60;99681.06;5090008;28;20024;-40
2024/03/31 02:37:57;;;;;;;10.35;3.33;;;;;;;15.92;50.30;99680.25;5090282;28;20044;-38
2024/03/31 02:40:23;;;;;;;10.55;3.20;;;;;;;15.91;50.58;99684.00;5090087;28;20016;-40
2024/03/31 02:42:48;;;;;;;9.70;3.22;;;;;;;15.91;50.18;99686.66;5090049;28;20353;-40
2024/03/31 02:45:14;;;;;;;11.50;3.55;;;;;;;15.93;50.12;99690.72;5090121;28;20107;-38
2024/03/31 02:47:40;;;;;;;7.30;3.10;;;;;;;15.86;50.18;99695.44;5090232;28;20031;-40
2024/03/31 02:50:05;;;;;;;7.05;2.92;;;;;;;15.84;50.05;99686.84;5090702;28;20020;-41
2024/03/31 02:52:31;;;;;;;8.88;3.40;;;;;;;15.81;49.53;99682.72;5090800;28;20032;-40
2024/03/31 02:54:56;;;;;;;15.10;3.20;;;;;;;15.87;49.96;99686.34;5090748;28;20417;-39
2024/03/31 02:57:21;;;;;;;12.63;3.30;;;;;;;15.76;50.72;99688.03;5090462;28;20024;-40
2024/03/31 02:59:47;;;;;;;8.75;3.10;;;;;;;15.76;50.78;99693.38;5090706;28;20020;-37
2024/03/31 03:02:13;;;;;;;9.23;3.20;;;;;;;15.55;50.63;99694.78;5090328;28;20024;-40
2024/03/31 03:04:38;;;;;;;8.32;3.15;;;;;;;15.64;50.49;99698.75;5090730;28;20471;-38
2024/03/31 03:07:04;;;;;;;13.20;3.33;;;;;;;15.50;51.10;99677.78;5090689;28;20465;-38
2024/03/31 03:09:29;;;;;;;9.68;3.35;;;;;;;15.65;50.83;99707.63;5094058;28;20103;-42
2024/03/31 03:11:55;;;;;;;13.95;3.58;;;;;;;15.66;50.90;99703.88;5094358;28;20463;-40
2024/03/31 03:14:20;;;;;;;7.10;3.17;;;;;;;15.61;50.76;99717.16;5094294;28;20028;-40
2024/03/31 03:16:46;;;;;;;10.80;3.60;;;;;;;15.66;50.93;99703.06;5094554;28;20508;-38
2024/03/31 03:19:11;;;;;;;11.32;3.67;;;;;;;15.68;50.98;99706.31;5094348;28;20427;-39
2024/03/31 03:21:37;;;;;;;8.68;3.15;;;;;;;15.58;51.31;99704.25;5094282;28;20020;-39
2024/03/31 03:24:02;;;;;;;9.18;3.80;;;;;;;15.52;50.91;99699.84;5093937;28;20081;-41
2024/03/31 03:26:28;;;;;;;11.52;4.13;;;;;;;15.47;51.76;99702.41;5094014;28;20556;-40
2024/03/31 03:28:53;;;;;;;11.52;3.80;;;;;;;15.40;52.20;99700.69;5093839;28;20020;-40
2024/03/31 03:31:18;;;;;;;11.25;3.80;;;;;;;15.42;51.92;99705.78;5094224;28;20020;-40
2024/03/31 03:33:47;;;;;;;8.48;3.80;;;;;;;15.37;51.75;99705.69;5094161;28;20125;-40
2024/03/31 03:36:12;;;;;;;10.95;3.50;;;;;;;15.30;51.58;99703.13;5093951;28;20084;-40
2024/03/31 03:38:38;;;;;;;11.63;3.42;;;;;;;15.32;52.19;99700.22;5093562;28;20118;-40
2024/03/31 03:41:03;;;;;;;8.60;3.25;;;;;;;15.36;52.17;99704.06;5093424;28;20034;-40
2024/03/31 03:43:32;;;;;;;12.48;4.20;;;;;;;15.25;52.40;99706.53;5093625;28;20024;-40
2024/03/31 03:46:00;;;;;;;7.95;3.40;;;;;;;15.17;53.00;99712.25;5093553;28;20044;-38
2024/03/31 03:48:26;;;;;;;9.52;3.83;;;;;;;15.21;52.91;99716.09;5093582;28;20112;-40
2024/03/31 03:50:51;;;;;;;11.30;3.63;;;;;;;15.23;52.65;99722.03;5093741;28;20107;-40
2024/03/31 03:53:17;;;;;;;11.65;3.85;;;;;;;15.35;51.81;99718.53;5093230;28;20028;-40
2024/03/31 03:55:43;;;;;;;9.55;3.35;;;;;;;15.33;51.95;99726.00;5093365;28;20099;-40
2024/03/31 03:58:09;;;;;;;14.38;4.05;;;;;;;15.32;51.65;99724.34;5094020;28;20192;-39
2024/03/31 04:00:39;;;;;;;14.98;4.15;;;;;;;15.18;52.43;99719.22;5093687;28;20024;-41
2024/03/31 04:03:04;;;;;;;12.30;3.80;;;;;;;15.28;53.17;99739.28;5093880;28;20034;-38
2024/03/31 04:05:29;;;;;;;10.65;4.07;;;;;;;15.30;52.65;99729.13;5093639;28;20016;-38
2024/03/31 04:07:55;;;;;;;11.55;3.88;;;;;;;15.19;53.52;99736.97;5093663;28;20069;-39
2024/03/31 04:10:20;;;;;;;16.35;3.90;;;;;;;15.23;52.76;99732.75;5093612;28;20552;-39
2024/03/31 04:12:48;;;;;;;11.93;4.03;;;;;;;15.24;52.49;99733.56;5092937;28;20035;-36
2024/03/31 04:15:14;;;;;;;11.75;3.58;;;;;;;15.15;52.25;99729.59;5093056;28;20028;-39
2024/03/31 04:17:39;;;;;;;13.77;3.50;;;;;;;15.30;51.83;99731.81;5093043;28;20526;-40
2024/03/31 04:20:05;;;;;;;10.93;3.72;;;;;;;15.48;51.38;99737.03;5092688;28;20020;-40
2024/03/31 04:22:31;;;;;;;14.63;4.80;;;;;;;15.45;51.98;99737.50;5093523;28;20468;-40
2024/03/31 04:24:57;;;;;;;9.82;4.30;;;;;;;15.60;51.55;99748.56;5093210;28;20023;-40
2024/03/31 04:27:22;;;;;;;12.80;3.95;;;;;;;15.78;52.38;99749.47;5093084;28;20051;-39
2024/03/31 04:29:48;;;;;;;12.85;3.85;;;;;;;15.96;52.58;99751.19;5092963;28;20032;-40
2024/03/31 04:32:14;;;;;;;12.77;4.18;;;;;;;16.05;52.38;99748.91;5093218;28;20016;-39
2024/03/31 04:34:39;;;;;;;13.18;4.32;;;;;;;16.11;51.65;99758.72;5092945;28;20461;-38
2024/03/31 04:37:05;;;;;;;13.27;4.20;;;;;;;16.14;51.38;99760.91;5093113;28;20353;-40
2024/03/31 04:39:30;;;;;;;14.65;4.63;;;;;;;16.33;51.67;99761.53;5092969;28;20055;-39
2024/03/31 04:41:55;;;;;;;14.63;4.25;;;;;;;16.41;51.28;99756.59;5093109;28;20028;-40
2024/03/31 04:44:21;;;;;;;12.68;3.97;;;;;;;16.53;50.82;99772.66;5092924;28;20169;-39
2024/03/31 04:46:50;;;;;;;7.90;4.03;;;;;;;16.61;50.08;99779.50;5092893;28;20027;-39
2024/03/31 04:49:17;;;;;;;12.23;4.10;;;;;;;16.70;50.00;99775.34;5091963;28;20023;-40
2024/03/31 04:51:42;;;;;;;15.20;4.65;;;;;;;16.84;49.61;99783.94;5092669;28;20032;-40
2024/03/31 04:54:07;;;;;;;12.30;4.07;;;;;;;16.89;49.75;99781.34;5092861;28;20020;-39
2024/03/31 04:56:33;;;;;;;11.95;4.03;;;;;;;17.07;49.85;99785.66;5093011;28;20027;-39
2024/03/31 04:58:58;;;;;;;12.77;4.25;;;;;;;17.13;49.12;99789.22;5092905;28;20110;-39
2024/03/31 05:01:24;;;;;;;9.88;4.57;;;;;;;17.19;48.83;99794.44;5092828;28;20460;-38
2024/03/31 05:03:49;;;;;;;13.43;4.93;;;;;;;17.30;48.58;99784.63;5092696;28;20024;-39
2024/03/31 05:06:15;;;;;;;11.98;4.65;;;;;;;16.87;49.44;99794.22;5092681;28;20024;-40
2024/03/31 05:08:40;;;;;;;10.60;4.60;;;;;;;17.33;48.47;99794.91;5092968;28;20020;-41
2024/03/31 05:11:05;;;;;;;11.70;4.43;;;;;;;17.46;48.92;99792.94;5092383;28;20451;-40
2024/03/31 05:13:32;;;;;;;13.38;4.80;;;;;;;17.65;47.60;99788.06;5092454;28;20035;-40
2024/03/31 05:16:02;;;;;;;11.23;4.60;;;;;;;17.91;46.73;99781.97;5092353;28;20020;-37
2024/03/31 05:18:27;;;;;;;11.23;4.78;;;;;;;18.09;46.31;99785.44;5092658;28;20051;-40
2024/03/31 05:20:57;;;;;;;14.38;5.25;;;;;;;18.35;45.56;99795.44;5092259;28;20483;-40
2024/03/31 05:23:23;;;;;;;13.23;5.93;;;;;;;18.45;45.33;99797.41;5092428;28;20052;-40
2024/03/31 05:25:48;;;;;;;13.68;5.70;;;;;;;18.75;44.47;99804.97;5091140;28;20055;-39
2024/03/31 05:28:14;;;;;;;14.20;5.00;;;;;;;18.86;44.08;99797.81;5092385;28;20036;-37
2024/03/31 05:30:39;;;;;;;15.57;5.30;;;;;;;19.16;43.76;99795.63;5091673;28;20028;-40
2024/03/31 05:33:04;;;;;;;18.38;8.63;;;;;;;19.52;42.99;99799.34;5092190;28;20024;-39
2024/03/31 05:35:30;;;;;;;22.10;7.30;;;;;;;19.78;42.35;99808.44;5091931;28;20024;-39
2024/03/31 05:37:55;;;;;;;22.30;8.90;;;;;;;19.99;41.55;99809.34;5092067;28;20044;-40
2024/03/31 05:40:21;;;;;;;19.73;7.68;;;;;;;19.95;40.84;99807.41;5092201;28;20027;-37
2024/03/31 05:42:46;;;;;;;16.15;8.85;;;;;;;19.96;41.10;99807.16;5091964;28;20016;-38
2024/03/31 05:45:12;;;;;;;11.90;4.82;;;;;;;20.21;40.93;99811.84;5091881;28;20678;-40
2024/03/31 05:47:37;;;;;;;15.15;4.68;;;;;;;20.41;40.14;99808.38;5091386;28;20073;-38
2024/03/31 05:50:03;;;;;;;11.68;4.53;;;;;;;20.60;40.11;99819.53;5091306;28;20016;-39
2024/03/31 05:52:28;;;;;;;10.95;4.32;;;;;;;20.88;39.01;99817.38;5091127;28;20506;-38
2024/03/31 05:54:53;;;;;;;10.85;4.28;;;;;;;21.16;38.16;99815.22;5090855;28;20113;-39
2024/03/31 05:57:19;;;;;;;9.50;4.22;;;;;;;21.28;37.58;99811.16;5091240;28;20035;-38
2024/03/31 05:59:44;;;;;;;11.85;4.40;;;;;;;21.64;37.54;99815.72;5091149;28;20415;-40
2024/03/31 06:02:09;;;;;;;12.75;4.05;;;;;;;22.10;37.20;99815.53;5091042;28;20456;-39
2024/03/31 06:04:35;;;;;;;12.05;4.15;;;;;;;22.46;36.32;99818.09;5091035;28;20016;-41
2024/03/31 06:07:00;;;;;;;14.77;3.78;;;;;;;22.77;35.44;99821.41;5091001;28;20453;-37
2024/03/31 06:09:26;;;;;;;13.75;4.30;;;;;;;22.99;34.55;99818.25;5091027;28;20020;-39
2024/03/31 06:11:51;;;;;;;12.68;4.20;;;;;;;23.28;33.99;99817.47;5090660;28;20103;-39
2024/03/31 06:14:16;;;;;;;12.73;4.35;;;;;;;23.08;34.37;99823.91;5091031;28;20020;-39
2024/03/31 06:16:42;;;;;;;10.88;4.10;;;;;;;23.11;34.22;99819.81;5091018;28;20028;-39
2024/03/31 06:19:07;;;;;;;15.77;4.20;;;;;;;23.09;34.87;99811.16;5090860;28;20431;-39
2024/03/31 06:21:33;;;;;;;12.18;4.40;;;;;;;23.48;33.71;99824.63;5090502;28;20103;-39
2024/03/31 06:23:58;;;;;;;15.80;4.63;;;;;;;23.77;33.71;99832.72;5090439;28;20043;-39
2024/03/31 06:26:23;;;;;;;10.32;4.25;;;;;;;23.93;33.93;99830.69;5090459;28;20452;-40
2024/03/31 06:28:49;;;;;;;19.08;5.22;;;;;;;24.30;33.82;99825.59;5090441;28;20651;-38
2024/03/31 06:31:14;;;;;;;12.38;4.07;;;;;;;24.71;32.80;99842.19;5090396;28;20021;-38
2024/03/31 06:33:43;;;;;;;11.15;4.53;;;;;;;24.60;32.62;99840.72;5090467;28;20476;-40
2024/03/31 06:36:09;;;;;;;16.42;5.07;;;;;;;24.97;32.02;99839.03;5090388;28;20310;-38
2024/03/31 06:38:34;;;;;;;9.55;4.20;;;;;;;25.23;31.82;99836.75;5090430;28;20056;-38
2024/03/31 06:40:59;;;;;;;11.13;4.30;;;;;;;25.48;31.04;99837.41;5090318;28;20024;-39
2024/03/31 06:43:25;;;;;;;14.05;4.30;;;;;;;25.19;31.01;99824.81;5093928;28;20039;-40
2024/03/31 06:45:50;;;;;;;12.60;4.75;;;;;;;25.41;30.54;99835.03;5094648;28;20464;-40
2024/03/31 06:48:16;;;;;;;13.23;4.50;;;;;;;25.45;30.76;99833.34;5094648;28;20498;-36
2024/03/31 06:50:41;;;;;;;12.93;4.32;;;;;;;25.55;30.08;99843.22;5094382;28;20028;-40
2024/03/31 06:53:07;;;;;;;10.82;5.10;;;;;;;25.83;29.82;99832.38;5094386;28;20460;-40
2024/03/31 06:55:32;;;;;;;14.43;4.10;;;;;;;26.00;29.04;99835.31;5094433;28;20030;-38
2024/03/31 06:57:58;;;;;;;11.57;3.95;;;;;;;25.98;29.30;99832.09;5094477;28;20023;-39
2024/03/31 07:00:23;;;;;;;10.60;4.38;;;;;;;25.59;30.27;99829.81;5094343;28;20020;-37
2024/03/31 07:02:49;;;;;;;11.57;4.22;;;;;;;26.28;29.61;99821.66;5094453;28;20411;-40
2024/03/31 07:05:15;;;;;;;8.82;4.00;;;;;;;26.71;28.45;99826.69;5094479;28;20039;-40
2024/03/31 07:07:41;;;;;;;17.40;4.22;;;;;;;27.15;28.02;99819.63;5094231;28;20073;-39
2024/03/31 07:10:06;;;;;;;13.82;3.65;;;;;;;27.71;28.29;99824.72;5094422;28;20031;-38
2024/03/31 07:12:32;;;;;;;9.15;3.75;;;;;;;28.05;27.42;99819.38;5094226;28;20111;-39
2024/03/31 07:14:57;;;;;;;23.52;5.82;;;;;;;28.13;26.95;99819.72;5094081;28;20099;-38
2024/03/31 07:17:23;;;;;;;11.95;4.35;;;;;;;28.43;28.11;99823.47;5094148;28;20396;-40
2024/03/31 07:19:48;;;;;;;11.70;4.10;;;;;;;28.71;30.42;99818.50;5093829;28;20054;-39
2024/03/31 07:22:13;;;;;;;8.38;3.83;;;;;;;28.56;27.50;99816.22;5093927;28;20015;-39
2024/03/31 07:24:39;;;;;;;11.40;3.83;;;;;;;28.78;26.47;99813.31;5094203;28;20112;-38
2024/03/31 07:27:04;;;;;;;10.05;3.85;;;;;;;29.05;25.83;99816.81;5094013;28;20380;-39
2024/03/31 07:29:31;;;;;;;12.10;3.80;;;;;;;28.65;26.93;99822.50;5092922;28;20457;-37
2024/03/31 07:31:56;;;;;;;15.20;4.57;;;;;;;29.00;30.20;99822.50;5093227;28;20023;-40
2024/03/31 07:34:22;;;;;;;11.65;4.10;;;;;;;29.40;26.33;99828.53;5093059;28;20035;-37
2024/03/31 07:36:47;;;;;;;12.85;4.15;;;;;;;29.77;25.58;99822.59;5093071;28;20020;-40
2024/03/31 07:39:13;;;;;;;12.20;4.13;;;;;;;30.20;24.83;99829.78;5093049;28;20504;-44
2024/03/31 07:41:38;;;;;;;13.07;4.60;;;;;;;29.58;24.85;99831.22;5093709;28;20031;-27
2024/03/31 07:44:04;;;;;;;10.55;4.00;;;;;;;29.36;25.02;99827.59;5092928;28;20553;-27
2024/03/31 07:46:29;;;;;;;11.93;3.95;;;;;;;30.00;25.26;99832.13;5093360;28;20456;-27
2024/03/31 07:48:58;;;;;;;13.93;3.95;;;;;;;30.36;24.85;99830.81;5093209;28;20110;-27
2024/03/31 07:51:23;;;;;;;8.05;3.50;;;;;;;30.54;24.20;99822.44;5093900;28;20028;-27
2024/03/31 07:53:48;;;;;;;9.93;4.38;;;;;;;30.92;24.05;99821.47;5093527;28;20039;-27
2024/03/31 07:56:14;;;;;;;18.38;5.95;;;;;;;30.44;23.91;99822.84;5094336;28;20020;-26
2024/03/31 07:58:39;;;;;;;10.07;3.97;;;;;;;30.87;24.00;99803.25;5094093;28;20024;-26
2024/03/31 08:01:05;;;;;;;11.23;4.47;;;;;;;31.27;23.02;99816.44;5094337;28;20112;-26
2024/03/31 08:03:30;;;;;;;10.15;3.10;;;;;;;31.32;22.27;99820.88;5093849;28;20424;-27
2024/03/31 08:05:55;;;;;;;7.05;2.78;;;;;;;31.15;22.64;99822.72;5093837;28;20050;-27
2024/03/31 08:08:21;;;;;;;7.57;3.30;;;;;;;31.21;23.13;99825.25;5094292;28;20036;-26
2024/03/31 08:10:46;;;;;;;6.88;2.78;;;;;;;31.51;22.89;99823.13;5093912;28;20024;-27
2024/03/31 08:13:12;;;;;;;8.88;3.20;;;;;;;31.75;22.69;99822.34;5092786;28;20085;-28
2024/03/31 08:15:38;;;;;;;12.02;3.50;;;;;;;31.72;22.50;99812.84;5084073;28;20476;-28
2024/03/31 08:18:04;;;;;;;10.88;3.50;;;;;;;32.03;22.02;99813.41;5085503;28;20032;-27
2024/03/31 08:20:31;;;;;;;9.40;3.15;;;;;;;32.11;21.93;99807.75;5092033;28;20085;-28
2024/03/31 08:22:57;;;;;;;9.50;2.55;;;;;;;31.23;22.11;99809.22;5092414;28;20089;-27
2024/03/31 08:25:22;;;;;;;6.78;2.78;;;;;;;31.56;22.23;99815.44;5092422;28;20024;-28
2024/03/31 08:27:47;;;;;;;10.95;3.20;;;;;;;31.28;22.69;99814.47;5092543;28;20023;-28
2024/03/31 08:30:13;;;;;;;10.52;3.08;;;;;;;31.18;22.85;99816.50;5093179;28;20028;-27
2024/03/31 08:32:38;;;;;;;8.15;3.17;;;;;;;31.56;22.87;99814.66;5092859;28;20020;-26
2024/03/31 08:35:04;;;;;;;8.90;3.30;;;;;;;30.90;22.98;99807.28;5093093;28;20337;-28
2024/03/31 08:37:30;;;;;;;9.65;3.05;;;;;;;30.69;22.79;99810.84;5093294;28;20032;-27
2024/03/31 08:39:56;;;;;;;10.63;3.88;;;;;;;30.80;30.41;99811.22;5093122;28;20043;-27
2024/03/31 08:42:28;;;;;;;8.05;2.90;;;;;;;31.11;22.98;99810.78;5093544;28;20027;-28
2024/03/31 08:44:57;;;;;;;9.73;3.13;;;;;;;31.22;23.15;99797.41;5093171;28;20035;-27
2024/03/31 08:47:29;;;;;;;5.72;2.90;;;;;;;31.11;22.80;99798.97;5085614;28;20059;-28
2024/03/31 08:49:59;;;;;;;8.32;3.15;;;;;;;30.95;23.11;99790.59;5072934;28;20456;-27
2024/03/31 08:52:25;;;;;;;7.38;2.90;;;;;;;31.27;22.83;99786.19;5073262;28;20028;-29
2024/03/31 08:54:51;;;;;;;9.25;3.17;;;;;;;30.32;23.54;99796.16;5072404;28;20354;-30
2024/03/31 08:57:17;;;;;;;8.40;2.92;;;;;;;29.60;24.39;99793.28;5072475;28;20036;-27
2024/03/31 08:59:42;;;;;;;10.63;3.10;;;;;;;29.89;24.83;99787.06;5072303;28;20038;-26
2024/03/31 09:02:16;;;;;;;9.32;3.30;;;;;;;30.51;23.60;99782.75;5072191;28;20029;-27
2024/03/31 09:04:42;;;;;;;10.35;4.10;;;;;;;29.88;24.94;99790.91;5072317;28;20024;-27
2024/03/31 09:07:07;;;;;;;10.52;3.85;;;;;;;30.03;24.46;99773.09;5071791;28;20458;-27
2024/03/31 09:09:34;;;;;;;12.52;3.55;;;;;;;29.24;25.13;99781.69;5071912;28;20031;-28
2024/03/31 09:12:00;;;;;;;8.88;3.90;;;;;;;28.47;26.31;99769.69;5072290;28;20137;-27
2024/03/31 09:14:26;;;;;;;9.05;3.80;;;;;;;28.43;26.80;99764.06;5072257;28;20029;-27
2024/03/31 09:16:51;;;;;;;10.35;4.03;;;;;;;28.76;26.90;99762.75;5072012;28;20102;-28
2024/03/31 09:19:17;;;;;;;8.20;3.45;;;;;;;28.52;26.50;99760.53;5072177;28;20111;-28
2024/03/31 09:21:46;;;;;;;11.35;3.30;;;;;;;29.26;25.73;99767.63;5072112;28;20032;-25
2024/03/31 09:24:12;;;;;;;9.63;3.25;;;;;;;28.99;26.18;99760.63;5072263;28;20110;-26
2024/03/31 09:26:41;;;;;;;9.27;3.30;;;;;;;29.43;24.96;99751.16;5072207;28;20017;-27
2024/03/31 09:29:08;;;;;;;12.10;3.10;;;;;;;28.40;26.14;99745.53;5072111;28;20026;-27
2024/03/31 09:31:33;;;;;;;8.52;3.38;;;;;;;29.00;25.78;99749.34;5072226;28;20024;-28
2024/03/31 09:33:59;;;;;;;15.40;3.45;;;;;;;28.03;27.29;99752.47;5072344;28;20034;-28
2024/03/31 09:36:26;;;;;;;10.63;3.05;;;;;;;27.49;27.80;99747.97;5071896;28;20025;-28
2024/03/31 09:38:51;;;;;;;12.77;3.22;;;;;;;28.16;27.71;99746.03;5071524;28;20163;-28
2024/03/31 09:41:19;;;;;;;9.27;3.40;;;;;;;28.94;27.09;99752.56;5072175;28;20032;-30
2024/03/31 09:43:44;;;;;;;8.55;2.72;;;;;;;29.25;25.84;99755.09;5072594;28;20119;-30
2024/03/31 09:46:12;;;;;;;13.55;2.95;;;;;;;28.47;26.86;99748.59;5087924;28;20099;-27
2024/03/31 09:48:43;;;;;;;8.45;2.45;;;;;;;29.22;25.61;99745.56;5091860;28;20119;-27
2024/03/31 09:51:15;;;;;;;6.47;2.55;;;;;;;28.89;26.33;99748.06;5091648;28;20063;-28
2024/03/31 09:53:53;;;;;;;7.78;2.60;;;;;;;29.06;26.29;99749.97;5091968;28;20421;-27
2024/03/31 09:56:25;;;;;;;7.75;2.40;;;;;;;29.16;25.63;99743.34;5091211;28;20032;-26
2024/03/31 09:58:52;;;;;;;10.25;3.58;;;;;;;29.53;25.85;99749.97;5092100;28;20088;-27
2024/03/31 10:01:19;;;;;;;8.23;2.67;;;;;;;30.24;24.76;99747.59;5091638;28;20016;-27
2024/03/31 10:03:50;;;;;;;10.88;2.80;;;;;;;28.70;25.69;99736.69;5091565;28;20051;-27
2024/03/31 10:06:17;;;;;;;7.28;2.40;;;;;;;28.52;26.49;99747.69;5091586;28;20031;-28
2024/03/31 10:08:43;;;;;;;9.57;2.90;;;;;;;29.39;25.90;99746.63;5091720;28;20114;-27
2024/03/31 10:11:09;;;;;;;8.90;2.90;;;;;;;29.39;26.26;99741.16;5091423;28;20103;-27
2024/03/31 10:13:35;;;;;;;7.63;2.30;;;;;;;29.63;25.25;99726.84;5091535;28;20036;-28
2024/03/31 10:16:03;;;;;;;7.93;2.70;;;;;;;29.81;25.21;99735.78;5091761;28;20463;-27
2024/03/31 10:18:30;;;;;;;12.35;2.78;;;;;;;28.25;26.39;99729.59;5091721;28;20020;-27
2024/03/31 10:20:56;;;;;;;6.78;2.58;;;;;;;28.81;26.00;99716.84;5091880;28;20019;-28
2024/03/31 10:23:24;;;;;;;6.13;2.60;;;;;;;27.99;27.43;99721.41;5091620;28;20020;-28
2024/03/31 10:25:52;;;;;;;7.65;2.90;;;;;;;28.79;27.00;99705.44;5091685;28;20020;-27
2024/03/31 10:28:18;;;;;;;10.27;3.40;;;;;;;28.82;27.38;99715.72;5091450;28;20064;-29
2024/03/31 10:30:43;;;;;;;8.27;3.35;;;;;;;28.47;26.72;99709.50;5091787;28;20407;-26
2024/03/31 10:33:10;;;;;;;8.57;3.40;;;;;;;28.74;25.65;99702.84;5091626;28;20036;-27
2024/03/31 10:35:38;;;;;;;8.95;3.45;;;;;;;28.27;30.11;99698.09;5091406;28;20108;-28
2024/03/31 10:38:04;;;;;;;10.73;3.20;;;;;;;27.69;28.01;99702.84;5091522;28;20044;-27
2024/03/31 10:40:31;;;;;;;8.32;3.20;;;;;;;27.45;27.92;99697.00;5091639;28;20036;-28
2024/03/31 10:42:57;;;;;;;9.85;3.30;;;;;;;27.92;28.29;99689.06;5091663;28;20131;-28
2024/03/31 10:45:24;;;;;;;6.88;2.83;;;;;;;28.31;28.66;99681.84;5091578;28;20226;-28
2024/03/31 10:47:50;;;;;;;10.00;3.50;;;;;;;27.87;27.81;99692.75;5090751;28;20032;-27
2024/03/31 10:50:15;;;;;;;10.65;3.95;;;;;;;28.10;28.19;99678.13;5090242;28;20088;-27
2024/03/31 10:52:41;;;;;;;9.27;3.00;;;;;;;27.47;28.50;99683.81;5090771;28;20039;-27
2024/03/31 10:55:08;;;;;;;8.48;2.85;;;;;;;27.85;28.28;99672.31;5090375;28;20028;-28
2024/03/31 10:57:38;;;;;;;11.50;3.00;;;;;;;28.23;28.36;99671.69;5091127;28;20028;-26
2024/03/31 11:00:06;;;;;;;9.90;2.95;;;;;;;28.68;27.25;99665.03;5091193;28;20027;-28
2024/03/31 11:02:33;;;;;;;14.80;3.28;;;;;;;28.26;28.13;99669.09;5091255;28;20046;-28
2024/03/31 11:05:07;;;;;;;6.75;2.70;;;;;;;28.37;28.06;99676.97;5085679;28;20096;-26
2024/03/31 11:07:38;;;;;;;12.95;3.22;;;;;;;27.73;29.53;99664.75;5070442;28;20081;-26
2024/03/31 11:10:08;;;;;;;8.43;2.70;;;;;;;27.16;29.99;99673.75;5071141;28;20025;-27
2024/03/31 11:12:38;;;;;;;9.32;3.00;;;;;;;27.73;29.96;99672.94;5070999;28;20032;-28
2024/03/31 11:15:07;;;;;;;7.03;2.90;;;;;;;28.65;28.22;99664.56;5070851;28;20473;-27
2024/03/31 11:17:33;;;;;;;11.77;2.97;;;;;;;29.16;27.95;99661.16;5079219;28;20024;-27
2024/03/31 11:20:00;;;;;;;11.48;3.10;;;;;;;28.87;27.93;99667.41;5090892;28;20039;-28
2024/03/31 11:22:26;;;;;;;8.98;2.80;;;;;;;28.28;29.18;99663.31;5091273;28;20047;-28